Time;durP1;ratioP1;P1;durP2;ratioP2;P2;SDS_P1;SDS_P2;PMS_P1;PMS_P2;Temp;Humidity;BMP_temperature;BMP_pressure;BME280_temperature;BME280_humidity;BME280_pressure;Samples;Min_cycle;Max_cycle;Signal;HPM_P1;HPM_P2
2023/07/23 00:04:19;;;;;;;2.45;2.13;;;;;;;19.21;53.83;96521.66;10536641;28;20027;-32
2023/07/23 00:09:19;;;;;;;2.80;2.30;;;;;;;19.13;53.83;96508.16;10539074;28;20050;-32
2023/07/23 00:14:19;;;;;;;3.30;2.35;;;;;;;19.14;53.72;96509.84;10534758;28;20307;-32
2023/07/23 00:19:20;;;;;;;2.80;1.95;;;;;;;19.21;53.44;96511.53;10540683;28;20043;-33
2023/07/23 00:24:20;;;;;;;2.13;1.93;;;;;;;19.16;53.44;96511.53;10534955;28;20016;-32
2023/07/23 00:29:21;;;;;;;2.63;1.70;;;;;;;19.12;53.65;96509.00;10533798;28;20042;-32
2023/07/23 00:34:21;;;;;;;3.63;1.97;;;;;;;19.19;53.59;96505.63;10516047;28;20032;-32
2023/07/23 00:39:21;;;;;;;3.83;2.10;;;;;;;19.12;53.49;96497.19;10533291;28;20020;-32
2023/07/23 00:44:22;;;;;;;3.25;2.67;;;;;;;19.12;53.69;96501.41;10516729;28;20032;-33
2023/07/23 00:49:22;;;;;;;2.20;1.93;;;;;;;19.19;53.66;96503.09;10534282;28;20036;-33
2023/07/23 00:54:23;;;;;;;2.60;1.75;;;;;;;19.09;53.56;96491.28;10543738;28;20123;-33
2023/07/23 00:59:24;;;;;;;3.38;1.80;;;;;;;19.05;53.52;96490.44;10531512;28;20040;-33
2023/07/23 01:04:26;;;;;;;2.43;2.00;;;;;;;19.09;53.61;96491.28;10517257;28;20031;-33
2023/07/23 01:09:27;;;;;;;2.28;1.52;;;;;;;19.13;53.25;96495.47;10531093;28;20038;-32
2023/07/23 01:14:27;;;;;;;2.50;1.77;;;;;;;19.04;53.52;96487.91;10519304;28;20089;-31
2023/07/23 01:19:28;;;;;;;2.42;1.73;;;;;;;19.10;53.76;96490.41;10520381;28;20431;-32
2023/07/23 01:24:28;;;;;;;1.73;1.50;;;;;;;19.08;53.42;96489.59;10513418;28;20028;-32
2023/07/23 01:29:29;;;;;;;3.00;2.00;;;;;;;19.06;53.47;96486.19;10528879;28;20574;-32
2023/07/23 01:34:29;;;;;;;2.72;1.92;;;;;;;19.08;53.63;96479.44;10534105;28;20402;-32
2023/07/23 01:39:32;;;;;;;3.75;2.55;;;;;;;19.02;53.58;96480.28;10532631;28;20081;-32
2023/07/23 01:44:33;;;;;;;1.95;1.65;;;;;;;18.94;54.01;96477.00;10529258;28;20032;-32
2023/07/23 01:49:33;;;;;;;2.40;1.57;;;;;;;18.93;54.16;96475.28;10524681;28;20494;-32
2023/07/23 01:54:33;;;;;;;4.83;1.90;;;;;;;18.93;53.82;96461.78;10517157;28;20374;-33
2023/07/23 01:59:34;;;;;;;2.77;1.83;;;;;;;18.94;53.91;96464.31;10527689;28;20032;-32
2023/07/23 02:04:35;;;;;;;2.20;1.80;;;;;;;18.98;54.01;96467.63;10532839;28;20039;-32
2023/07/23 02:09:35;;;;;;;3.63;1.67;;;;;;;18.93;54.52;96465.13;10541954;28;20036;-32
2023/07/23 02:14:35;;;;;;;4.00;2.30;;;;;;;18.94;53.81;96463.44;10539992;28;20489;-32
2023/07/23 02:19:37;;;;;;;4.10;2.20;;;;;;;18.89;53.98;96465.16;10527913;28;20028;-32
2023/07/23 02:24:37;;;;;;;3.00;1.80;;;;;;;18.94;53.92;96471.06;10541266;28;20024;-32
2023/07/23 02:29:38;;;;;;;4.32;1.77;;;;;;;18.98;53.84;96465.09;10533858;28;20133;-32
2023/07/23 02:34:39;;;;;;;2.75;1.60;;;;;;;18.95;53.83;96473.59;10543844;28;20023;-32
2023/07/23 02:39:39;;;;;;;3.10;1.80;;;;;;;18.96;53.90;96475.28;10505515;28;20123;-33
2023/07/23 02:44:40;;;;;;;3.08;2.08;;;;;;;18.99;53.72;96471.88;10508262;28;20311;-33
2023/07/23 02:49:40;;;;;;;2.40;1.90;;;;;;;19.00;53.78;96468.50;10531159;28;20433;-32
2023/07/23 02:54:42;;;;;;;2.13;1.60;;;;;;;19.00;53.80;96476.09;10546202;28;20032;-33
2023/07/23 02:59:42;;;;;;;1.48;1.30;;;;;;;18.94;53.83;96478.66;10522903;28;20067;-32
2023/07/23 03:04:42;;;;;;;2.30;2.07;;;;;;;18.91;54.01;96478.69;10534188;28;20113;-33
2023/07/23 03:09:43;;;;;;;2.63;1.73;;;;;;;18.96;53.87;96476.97;10532657;28;20042;-32
2023/07/23 03:14:43;;;;;;;1.67;1.57;;;;;;;18.87;54.05;96482.09;10506482;28;20304;-32
2023/07/23 03:19:43;;;;;;;2.47;1.93;;;;;;;18.88;54.15;96481.22;10535151;28;20043;-32
2023/07/23 03:24:45;;;;;;;5.93;1.93;;;;;;;18.96;54.13;96492.19;10537545;28;20031;-32
2023/07/23 03:29:45;;;;;;;2.25;1.70;;;;;;;18.89;53.46;96488.00;10534146;28;20038;-32
2023/07/23 03:34:45;;;;;;;2.03;1.67;;;;;;;18.85;54.17;96479.56;10522637;28;20477;-32
2023/07/23 03:39:46;;;;;;;2.83;2.20;;;;;;;18.85;54.15;96481.25;10521560;28;20028;-30
2023/07/23 03:44:46;;;;;;;3.10;1.77;;;;;;;18.84;54.26;96489.72;10526641;28;20032;-30
2023/07/23 03:49:47;;;;;;;1.77;1.53;;;;;;;18.72;54.52;96472.88;10518800;28;20028;-31
2023/07/23 03:54:48;;;;;;;3.00;1.80;;;;;;;18.73;54.71;96486.38;10529001;28;20114;-30
2023/07/23 03:59:49;;;;;;;4.00;2.10;;;;;;;18.68;54.95;96490.66;10524907;28;20043;-30
2023/07/23 04:04:49;;;;;;;2.08;1.85;;;;;;;18.64;54.66;96486.41;10537207;28;20496;-30
2023/07/23 04:09:49;;;;;;;1.87;1.40;;;;;;;18.63;54.94;96483.06;10538537;28;20028;-29
2023/07/23 04:14:50;;;;;;;1.63;1.37;;;;;;;18.57;55.26;96483.06;10528434;28;20032;-29
2023/07/23 04:19:50;;;;;;;3.10;2.38;;;;;;;18.58;55.18;96486.47;10523148;28;20028;-30
2023/07/23 04:24:51;;;;;;;2.87;1.80;;;;;;;18.60;55.20;96493.19;10540959;28;20069;-30
2023/07/23 04:29:53;;;;;;;2.33;1.60;;;;;;;18.61;55.15;96494.06;10537673;28;20655;-30
2023/07/23 04:34:54;;;;;;;2.47;1.77;;;;;;;18.65;55.30;96495.72;10512925;28;20035;-30
2023/07/23 04:39:54;;;;;;;3.30;2.20;;;;;;;18.60;55.44;96492.38;10540836;28;20039;-31
2023/07/23 04:44:55;;;;;;;4.23;2.13;;;;;;;18.47;56.15;96501.72;10531102;28;20100;-29
2023/07/23 04:49:57;;;;;;;2.92;2.15;;;;;;;18.67;55.80;96514.31;10540324;28;20047;-30
2023/07/23 04:54:58;;;;;;;3.38;1.92;;;;;;;18.58;55.80;96509.28;10533761;28;20036;-30
2023/07/23 04:59:58;;;;;;;2.03;1.83;;;;;;;18.63;55.77;96512.63;10532582;28;20028;-30
2023/07/23 05:04:58;;;;;;;2.30;1.80;;;;;;;18.66;55.78;96515.19;10544696;28;20751;-30
2023/07/23 05:09:59;;;;;;;2.78;1.70;;;;;;;18.67;55.97;96517.69;10539528;28;20478;-31
2023/07/23 05:15:11;;;;;;;2.73;1.80;;;;;;;18.69;56.04;96517.69;10526209;28;20183;-30
2023/07/23 05:20:11;;;;;;;6.93;2.30;;;;;;;18.74;56.16;96510.91;10529258;28;20406;-30
2023/07/23 05:25:12;;;;;;;6.00;2.33;;;;;;;18.60;57.12;96513.47;10524494;28;20088;-31
2023/07/23 05:30:14;;;;;;;2.47;2.28;;;;;;;18.74;57.18;96518.53;10532875;28;20446;-29
2023/07/23 05:35:14;;;;;;;3.03;2.17;;;;;;;18.88;56.87;96510.00;10531953;28;20425;-30
2023/07/23 05:40:15;;;;;;;2.35;2.15;;;;;;;18.78;57.21;96517.66;10537681;28;20043;-32
2023/07/23 05:45:15;;;;;;;2.45;2.25;;;;;;;18.80;57.56;96518.47;10532869;28;20024;-32
2023/07/23 05:50:15;;;;;;;3.70;1.73;;;;;;;18.96;57.31;96512.47;10542254;28;20036;-32
2023/07/23 05:55:16;;;;;;;2.00;1.80;;;;;;;19.17;57.03;96522.53;10538188;28;20040;-31
2023/07/23 06:00:16;;;;;;;3.15;2.80;;;;;;;19.15;57.11;96521.66;10526627;28;20077;-32
2023/07/23 06:05:17;;;;;;;2.63;2.00;;;;;;;19.26;56.79;96522.50;10540706;28;20034;-32
2023/07/23 06:10:17;;;;;;;3.53;2.03;;;;;;;19.47;56.38;96532.50;10502007;28;20298;-32
2023/07/23 06:15:19;;;;;;;3.17;2.25;;;;;;;19.45;56.57;96534.22;10485455;28;20048;-32
2023/07/23 06:20:19;;;;;;;3.22;2.30;;;;;;;19.63;55.99;96536.63;10505747;28;20036;-31
2023/07/23 06:25:20;;;;;;;2.67;1.83;;;;;;;19.65;57.13;96532.34;10532481;28;20032;-33
2023/07/23 06:30:20;;;;;;;2.63;2.10;;;;;;;19.88;56.00;96531.34;10542207;28;20082;-32
2023/07/23 06:35:21;;;;;;;4.70;2.23;;;;;;;19.62;56.84;96533.25;10539055;28;20036;-33
2023/07/23 06:40:21;;;;;;;2.58;1.90;;;;;;;19.47;58.12;96532.50;10541226;28;20036;-33
2023/07/23 06:45:21;;;;;;;3.97;1.97;;;;;;;19.77;56.61;96529.75;10538576;28;20038;-33
2023/07/23 06:50:22;;;;;;;3.10;1.87;;;;;;;19.59;56.68;96522.28;10538622;28;20042;-33
2023/07/23 06:55:22;;;;;;;2.83;2.20;;;;;;;19.46;58.40;96515.59;10530765;28;21063;-33
2023/07/23 07:00:23;;;;;;;2.35;2.00;;;;;;;19.73;57.93;96530.59;10532748;28;20035;-32
2023/07/23 07:05:23;;;;;;;6.70;3.03;;;;;;;19.78;57.46;96526.34;10543238;28;20055;-32
2023/07/23 07:10:23;;;;;;;3.65;2.15;;;;;;;19.84;57.08;96533.94;10541100;28;20516;-32
2023/07/23 07:15:24;;;;;;;2.87;2.00;;;;;;;20.05;58.52;96521.03;10532005;28;20539;-33
2023/07/23 07:20:24;;;;;;;3.67;2.33;;;;;;;20.26;57.29;96528.50;10535663;28;20421;-32
2023/07/23 07:25:25;;;;;;;2.28;1.95;;;;;;;20.38;56.26;96535.09;10532542;28;20540;-32
2023/07/23 07:30:25;;;;;;;2.97;1.93;;;;;;;20.31;56.40;96541.97;10533069;28;20113;-32
2023/07/23 07:35:25;;;;;;;3.07;1.90;;;;;;;20.42;56.04;96524.06;10537931;28;20350;-32
2023/07/23 07:40:27;;;;;;;3.17;1.63;;;;;;;20.73;54.66;96533.00;10541334;28;20040;-33
2023/07/23 07:45:27;;;;;;;2.28;1.60;;;;;;;20.68;55.13;96534.78;10536812;28;20042;-32
2023/07/23 07:50:28;;;;;;;4.80;1.43;;;;;;;20.71;54.31;96516.94;10540403;28;20028;-33
2023/07/23 07:55:28;;;;;;;4.23;1.97;;;;;;;20.80;54.78;96521.91;10527361;28;20024;-31
2023/07/23 08:00:29;;;;;;;1.88;1.73;;;;;;;20.49;55.14;96520.59;10522670;28;20285;-33
2023/07/23 08:05:30;;;;;;;1.98;1.55;;;;;;;20.66;55.45;96531.44;10537006;28;20028;-33
2023/07/23 08:10:33;;;;;;;1.88;1.35;;;;;;;20.93;54.65;96520.94;10536665;28;20044;-34
2023/07/23 08:15:36;;;;;;;2.30;1.63;;;;;;;20.81;54.43;96526.13;10535847;28;20071;-32
2023/07/23 08:20:36;;;;;;;2.65;1.88;;;;;;;20.89;53.39;96529.47;10534458;28;20028;-31
2023/07/23 08:25:38;;;;;;;2.60;1.63;;;;;;;20.70;53.69;96530.53;10536040;28;20028;-32
2023/07/23 08:30:38;;;;;;;3.45;1.50;;;;;;;20.43;54.45;96538.47;10538385;28;20058;-32
2023/07/23 08:35:39;;;;;;;3.20;2.03;;;;;;;20.31;55.05;96532.66;10533322;28;20049;-32
2023/07/23 08:40:44;;;;;;;4.73;1.80;;;;;;;20.27;55.13;96541.16;10543837;28;20399;-32
2023/07/23 08:46:09;;;;;;;4.38;1.67;;;;;;;20.21;55.21;96525.13;10539752;28;20324;-32
2023/07/23 08:51:10;;;;;;;7.28;1.65;;;;;;;20.17;55.19;96526.03;10533526;28;20059;-32
2023/07/23 08:56:10;;;;;;;3.35;1.70;;;;;;;20.16;55.25;96529.41;10532172;28;20123;-32
2023/07/23 09:01:16;;;;;;;2.15;1.45;;;;;;;20.26;55.59;96538.66;10529439;28;20033;-32
2023/07/23 09:06:17;;;;;;;3.85;1.88;;;;;;;20.42;55.24;96545.28;10538070;28;20038;-32
2023/07/23 09:11:17;;;;;;;2.95;1.90;;;;;;;20.43;54.92;96537.59;10538468;28;20520;-32
2023/07/23 09:16:23;;;;;;;3.75;1.73;;;;;;;20.34;54.97;96529.25;10531159;28;20040;-33
2023/07/23 09:21:27;;;;;;;3.20;1.90;;;;;;;20.26;55.13;96531.03;10532622;28;20032;-33
2023/07/23 09:26:28;;;;;;;1.48;1.27;;;;;;;20.20;55.04;96523.44;10532073;28;20257;-32
2023/07/23 09:31:31;;;;;;;1.98;1.85;;;;;;;20.18;55.23;96530.25;10531957;28;20028;-33
2023/07/23 09:36:32;;;;;;;3.33;1.50;;;;;;;20.18;54.90;96520.09;10532081;28;20047;-33
2023/07/23 09:41:34;;;;;;;3.63;1.47;;;;;;;20.13;55.53;96512.50;10526777;28;20049;-33
2023/07/23 09:46:39;;;;;;;2.05;1.52;;;;;;;20.17;55.23;96510.78;10525704;28;20028;-32
2023/07/23 09:51:50;;;;;;;3.85;1.73;;;;;;;20.20;55.56;96513.28;10530251;28;20039;-32
2023/07/23 09:56:52;;;;;;;3.83;1.85;;;;;;;20.40;55.49;96525.75;10533882;28;20255;-33
2023/07/23 10:01:54;;;;;;;2.10;1.90;;;;;;;20.46;55.45;96507.06;10522732;28;20494;-32
2023/07/23 10:06:55;;;;;;;2.08;1.85;;;;;;;20.40;55.05;96522.38;10531195;28;20028;-31
2023/07/23 10:11:55;;;;;;;5.07;1.98;;;;;;;20.27;55.27;96499.66;10539456;28;20280;-33
2023/07/23 10:16:57;;;;;;;2.33;2.10;;;;;;;20.29;55.04;96505.56;10526384;28;20039;-32
2023/07/23 10:21:57;;;;;;;3.10;2.10;;;;;;;20.21;55.19;96510.72;10519945;28;20120;-32
2023/07/23 10:26:58;;;;;;;5.40;1.80;;;;;;;20.20;55.15;96509.06;10531022;28;20535;-32
2023/07/23 10:32:22;;;;;;;2.80;1.58;;;;;;;20.18;55.25;96487.03;10532865;28;20300;-33
2023/07/23 10:37:22;;;;;;;3.17;1.60;;;;;;;20.20;55.27;96498.03;10540514;28;20398;-32
2023/07/23 10:42:44;;;;;;;1.73;1.40;;;;;;;20.17;54.95;96496.34;10537016;28;20040;-33
2023/07/23 10:47:57;;;;;;;2.65;1.88;;;;;;;20.39;55.13;96491.03;10529522;28;20020;-33
2023/07/23 10:53:05;;;;;;;2.47;1.90;;;;;;;20.49;55.06;96485.00;10534752;28;20047;-32
2023/07/23 10:58:13;;;;;;;2.38;1.85;;;;;;;20.49;55.12;96485.00;10540438;28;20514;-32
2023/07/23 11:03:18;;;;;;;3.08;1.50;;;;;;;20.36;55.08;96474.97;10535892;28;20032;-32
2023/07/23 11:08:23;;;;;;;4.28;2.20;;;;;;;20.30;55.12;96469.97;10540782;28;20058;-33
2023/07/23 11:13:34;;;;;;;5.83;2.43;;;;;;;20.29;55.78;96467.44;10524730;28;20064;-32
2023/07/23 11:18:34;;;;;;;11.23;2.38;;;;;;;20.32;55.36;96464.84;10541962;28;20090;-32
2023/07/23 11:23:35;;;;;;;6.32;2.00;;;;;;;20.28;55.37;96463.19;10530620;28;20314;-33
2023/07/23 11:28:36;;;;;;;79.93;4.97;;;;;;;21.76;55.92;96441.59;10534609;28;20044;-35
2023/07/23 11:33:36;;;;;;;5.82;1.98;;;;;;;20.93;54.96;96434.41;10534100;28;20067;-29
2023/07/23 11:38:36;;;;;;;9.43;2.20;;;;;;;20.87;56.05;96439.56;10544190;28;20040;-30
2023/07/23 11:43:38;;;;;;;10.87;2.73;;;;;;;20.78;56.00;96409.13;10537908;28;20612;-29
2023/07/23 11:48:38;;;;;;;9.55;2.13;;;;;;;20.91;54.82;96410.69;10551134;28;20115;-29
2023/07/23 11:53:39;;;;;;;3.13;2.00;;;;;;;20.78;55.90;96414.22;10531914;28;20036;-30
2023/07/23 11:58:41;;;;;;;5.57;1.70;;;;;;;20.62;56.02;96402.56;10535561;28;20020;-29
2023/07/23 12:03:43;;;;;;;3.85;1.88;;;;;;;20.53;55.99;96406.94;10533727;28;20486;-29
2023/07/23 12:08:46;;;;;;;5.75;2.05;;;;;;;20.47;55.92;96401.94;10546915;28;20103;-29
2023/07/23 12:13:52;;;;;;;10.57;2.13;;;;;;;20.38;55.91;96385.09;10533378;28;20036;-29
2023/07/23 12:18:58;;;;;;;5.38;2.45;;;;;;;20.44;55.92;96402.81;10532895;28;20501;-29
2023/07/23 12:24:13;;;;;;;4.78;2.33;;;;;;;20.49;56.14;96390.91;10534855;28;20393;-29
2023/07/23 12:29:14;;;;;;;7.45;2.58;;;;;;;20.80;56.59;96392.13;10534732;28;20031;-30
2023/07/23 12:34:15;;;;;;;4.72;2.45;;;;;;;20.81;56.37;96393.81;10542776;28;20397;-30
2023/07/23 12:39:16;;;;;;;11.43;2.55;;;;;;;20.73;56.12;96395.63;10533243;28;20540;-29
2023/07/23 12:44:16;;;;;;;7.47;2.40;;;;;;;20.60;56.29;96398.38;10527431;28;20035;-29
2023/07/23 12:49:16;;;;;;;7.60;2.17;;;;;;;20.52;55.76;96400.16;10538494;28;20038;-29
2023/07/23 12:54:17;;;;;;;7.33;1.97;;;;;;;20.46;56.39;96397.72;10544371;28;20364;-30
2023/07/23 12:59:17;;;;;;;5.88;2.38;;;;;;;20.49;56.24;96390.91;10533927;28;20028;-30
2023/07/23 13:04:18;;;;;;;2.70;1.97;;;;;;;20.45;56.06;96391.78;10533200;28;20070;-30
2023/07/23 13:09:18;;;;;;;3.17;2.50;;;;;;;20.42;56.01;96384.22;10532395;28;20035;-30
2023/07/23 13:14:18;;;;;;;3.83;1.60;;;;;;;20.42;55.94;96389.28;10545864;28;20398;-30
2023/07/23 13:19:19;;;;;;;3.53;2.20;;;;;;;20.53;56.64;96392.53;10532181;28;20024;-30
2023/07/23 13:24:19;;;;;;;3.77;2.30;;;;;;;20.69;57.20;96414.34;10532324;28;20400;-29
2023/07/23 13:29:19;;;;;;;7.93;2.27;;;;;;;20.65;56.26;96402.53;10521057;28;20378;-30
2023/07/23 13:34:20;;;;;;;3.07;2.50;;;;;;;20.82;56.59;96399.75;10529771;28;20301;-30
2023/07/23 13:39:20;;;;;;;5.03;2.33;;;;;;;20.70;56.44;96385.50;10531468;28;20028;-29
2023/07/23 13:44:20;;;;;;;5.77;2.50;;;;;;;20.58;56.70;96395.00;10531962;28;20542;-29
2023/07/23 13:49:21;;;;;;;5.63;2.27;;;;;;;20.47;56.16;96397.69;10529725;28;20436;-30
2023/07/23 13:54:21;;;;;;;2.87;1.97;;;;;;;20.47;55.93;96394.31;10525064;28;20036;-30
2023/07/23 13:59:25;;;;;;;3.83;2.27;;;;;;;20.47;55.68;96391.78;10528299;28;20031;-29
2023/07/23 14:04:25;;;;;;;4.10;2.00;;;;;;;20.45;56.21;96378.25;10532390;28;20644;-29
2023/07/23 14:09:25;;;;;;;6.50;2.70;;;;;;;20.61;56.38;96380.56;10536620;28;20031;-30
2023/07/23 14:14:26;;;;;;;4.53;2.83;;;;;;;20.73;56.23;96375.28;10535349;28;20036;-30
2023/07/23 14:19:26;;;;;;;4.73;2.27;;;;;;;20.68;55.71;96377.06;10528714;28;20089;-31
2023/07/23 14:24:26;;;;;;;4.57;2.33;;;;;;;20.59;55.83;96361.06;10539731;28;20107;-29
2023/07/23 14:29:27;;;;;;;5.83;2.10;;;;;;;20.53;55.79;96359.47;10538825;28;20317;-30
2023/07/23 14:34:27;;;;;;;3.77;2.27;;;;;;;20.50;55.86;96359.53;10539470;28;20290;-29
2023/07/23 14:39:28;;;;;;;2.22;1.80;;;;;;;20.48;55.68;96351.03;10538258;28;20063;-30
2023/07/23 14:44:29;;;;;;;2.78;2.15;;;;;;;20.47;55.56;96351.09;10538822;28;20020;-29
2023/07/23 14:49:30;;;;;;;4.90;2.57;;;;;;;20.47;55.69;96351.91;10531227;28;20523;-30
2023/07/23 14:54:30;;;;;;;2.60;2.13;;;;;;;20.45;55.82;96343.47;10531953;28;20633;-30
2023/07/23 14:59:30;;;;;;;4.97;2.70;;;;;;;20.57;56.48;96358.53;10528809;28;20038;-28
2023/07/23 15:04:31;;;;;;;3.40;2.03;;;;;;;20.74;56.06;96343.06;10537560;28;20024;-29
2023/07/23 15:09:31;;;;;;;3.30;1.90;;;;;;;20.71;55.29;96336.31;10533792;28;20044;-30
2023/07/23 15:14:32;;;;;;;3.30;2.30;;;;;;;20.64;55.79;96332.16;10533136;28;20039;-30
2023/07/23 15:19:32;;;;;;;2.55;1.88;;;;;;;20.57;55.75;96333.13;10535883;28;20056;-30
2023/07/23 15:24:33;;;;;;;3.40;2.33;;;;;;;20.54;55.86;96338.25;10537670;28;20490;-29
2023/07/23 15:29:39;;;;;;;3.55;2.30;;;;;;;20.53;55.78;96336.56;10536487;28;20096;-30
2023/07/23 15:34:40;;;;;;;2.92;1.80;;;;;;;20.49;55.86;96332.41;10533316;28;20494;-30
2023/07/23 15:39:40;;;;;;;2.63;1.80;;;;;;;20.49;55.84;96329.88;10530872;28;20044;-29
2023/07/23 15:44:41;;;;;;;3.47;1.83;;;;;;;20.48;55.82;96330.69;10532691;28;20031;-30
2023/07/23 15:49:41;;;;;;;2.75;1.83;;;;;;;20.49;56.07;96326.47;10541131;28;20040;-30
2023/07/23 15:54:42;;;;;;;4.63;2.77;;;;;;;20.60;57.38;96322.91;10538707;28;20035;-30
2023/07/23 15:59:42;;;;;;;4.60;2.17;;;;;;;20.77;56.40;96320.97;10529308;28;20494;-31
2023/07/23 16:04:42;;;;;;;8.77;2.10;;;;;;;20.68;56.42;96321.09;10535524;28;20490;-30
2023/07/23 16:09:43;;;;;;;7.33;1.90;;;;;;;20.62;56.16;96311.00;10531819;28;20032;-30
2023/07/23 16:14:43;;;;;;;8.30;1.97;;;;;;;20.62;55.73;96311.00;10535239;28;20464;-30
2023/07/23 16:19:43;;;;;;;2.90;1.90;;;;;;;20.64;55.93;96299.09;10534365;28;20114;-29
2023/07/23 16:24:43;;;;;;;7.43;2.43;;;;;;;20.65;55.93;96279.59;10527562;28;20153;-30
2023/07/23 16:29:46;;;;;;;9.80;2.40;;;;;;;20.65;55.88;96285.50;10531649;28;20188;-29
2023/07/23 16:34:46;;;;;;;7.80;2.20;;;;;;;20.64;56.00;96286.38;10525076;28;20036;-29
2023/07/23 16:39:48;;;;;;;4.10;2.10;;;;;;;20.64;55.97;96268.56;10520707;28;20040;-28
2023/07/23 16:44:51;;;;;;;11.38;3.75;;;;;;;20.80;57.90;96264.91;10530623;28;20443;-29
2023/07/23 16:49:51;;;;;;;9.38;3.95;;;;;;;20.88;57.55;96258.03;10523268;28;20063;-29
2023/07/23 16:54:52;;;;;;;5.80;3.03;;;;;;;20.79;55.87;96257.34;10526160;28;20032;-29
2023/07/23 16:59:53;;;;;;;7.35;2.65;;;;;;;20.72;56.02;96243.84;10518712;28;20032;-29
2023/07/23 17:04:53;;;;;;;4.07;2.43;;;;;;;20.68;55.92;96243.94;10532832;28;20024;-29
2023/07/23 17:09:54;;;;;;;4.10;2.50;;;;;;;20.66;56.15;96238.03;10536931;28;20039;-29
2023/07/23 17:14:54;;;;;;;7.10;2.65;;;;;;;20.66;56.18;96236.34;10524310;28;20032;-28
2023/07/23 17:19:55;;;;;;;5.55;2.55;;;;;;;20.65;56.21;96229.53;10528787;28;20131;-29
2023/07/23 17:24:55;;;;;;;4.87;2.40;;;;;;;20.64;56.32;96232.97;10531916;28;20024;-29
2023/07/23 17:29:55;;;;;;;5.87;2.80;;;;;;;20.61;56.39;96220.31;10531878;28;20524;-29
2023/07/23 17:34:56;;;;;;;7.57;3.93;;;;;;;20.78;57.61;96220.88;10532643;28;20104;-29
2023/07/23 17:39:56;;;;;;;8.13;4.87;;;;;;;20.91;59.66;96217.28;10531028;28;20100;-29
2023/07/23 17:44:57;;;;;;;10.07;3.33;;;;;;;20.84;56.84;96220.78;10536030;28;20029;-29
2023/07/23 17:49:59;;;;;;;6.90;2.90;;;;;;;20.74;56.35;96219.25;10517712;28;20290;-29
2023/07/23 17:54:59;;;;;;;4.78;3.00;;;;;;;20.70;56.57;96216.75;10531154;28;20032;-29
2023/07/23 17:59:59;;;;;;;8.03;3.60;;;;;;;20.67;56.55;96217.66;10528972;28;20482;-28
2023/07/23 18:05:00;;;;;;;5.33;2.93;;;;;;;20.66;56.35;96205.81;10512499;28;20035;-29
2023/07/23 18:10:00;;;;;;;8.27;2.87;;;;;;;20.64;56.40;96196.53;10527098;28;20030;-30
2023/07/23 18:15:01;;;;;;;5.03;2.87;;;;;;;20.64;56.37;96194.81;10541274;28;20042;-29
2023/07/23 18:20:01;;;;;;;6.13;2.65;;;;;;;20.63;56.54;96195.69;10521879;28;20039;-29
2023/07/23 18:25:02;;;;;;;10.13;4.15;;;;;;;20.79;57.98;96191.19;10522248;28;20036;-29
2023/07/23 18:30:03;;;;;;;6.13;3.53;;;;;;;20.90;58.39;96190.13;10527492;28;20485;-29
2023/07/23 18:35:04;;;;;;;3.53;2.83;;;;;;;20.87;57.59;96185.13;10527348;28;20032;-29
2023/07/23 18:40:05;;;;;;;5.63;3.40;;;;;;;20.76;57.02;96181.91;10527433;28;20035;-29
2023/07/23 18:45:06;;;;;;;4.82;3.13;;;;;;;20.71;56.74;96168.41;10524218;28;20024;-29
2023/07/23 18:50:08;;;;;;;4.25;2.92;;;;;;;20.63;56.62;96165.16;10522698;28;20040;-29
2023/07/23 18:55:08;;;;;;;5.18;2.88;;;;;;;20.63;56.96;96157.53;10524118;28;20036;-29
2023/07/23 19:00:09;;;;;;;5.60;2.92;;;;;;;20.66;56.52;96154.09;10530149;28;20567;-28
2023/07/23 19:05:10;;;;;;;5.93;3.47;;;;;;;20.65;56.89;96149.88;10521233;28;20028;-29
2023/07/23 19:10:10;;;;;;;5.93;2.60;;;;;;;20.64;56.83;96143.13;10519041;28;20039;-32
2023/07/23 19:15:11;;;;;;;6.93;3.30;;;;;;;20.79;57.85;96140.31;10525346;28;20059;-29
2023/07/23 19:20:11;;;;;;;5.17;3.47;;;;;;;20.90;59.02;96134.16;10537174;28;20437;-29
2023/07/23 19:25:11;;;;;;;4.20;2.75;;;;;;;20.90;58.13;96144.34;10528395;28;20063;-29
2023/07/23 19:30:12;;;;;;;5.07;2.87;;;;;;;20.78;56.90;96139.44;10522817;28;20043;-29
2023/07/23 19:35:12;;;;;;;4.50;2.93;;;;;;;20.72;56.75;96134.47;10525900;28;20036;-29
2023/07/23 19:40:13;;;;;;;4.03;3.03;;;;;;;20.70;56.98;96141.28;10525715;28;20023;-29
2023/07/23 19:45:13;;;;;;;3.92;2.85;;;;;;;20.66;56.73;96139.69;10536285;28;20126;-30
2023/07/23 19:50:13;;;;;;;5.05;3.08;;;;;;;20.64;56.83;96126.13;10528130;28;20089;-28
2023/07/23 19:55:15;;;;;;;5.67;2.47;;;;;;;20.63;56.77;96137.16;10530816;28;20032;-29
2023/07/23 20:00:15;;;;;;;3.03;2.28;;;;;;;20.61;56.78;96131.28;10529834;28;20028;-29
2023/07/23 20:05:16;;;;;;;5.75;3.47;;;;;;;20.74;58.30;96137.84;10533592;28;20055;-29
2023/07/23 20:10:17;;;;;;;5.80;3.13;;;;;;;20.90;58.74;96133.34;10526503;28;20044;-29
2023/07/23 20:15:19;;;;;;;5.03;3.00;;;;;;;20.90;58.24;96144.34;10532651;28;20067;-29
2023/07/23 20:20:19;;;;;;;3.67;2.85;;;;;;;20.78;57.07;96139.44;10531895;28;20028;-29
2023/07/23 20:25:22;;;;;;;5.07;3.17;;;;;;;20.70;56.24;96131.13;10518197;28;20395;-29
2023/07/23 20:30:22;;;;;;;3.45;2.55;;;;;;;20.70;56.69;96138.75;10529099;28;20024;-30
2023/07/23 20:35:23;;;;;;;3.60;2.50;;;;;;;20.65;56.95;96134.63;10522129;28;20037;-29
2023/07/23 20:40:24;;;;;;;7.03;3.08;;;;;;;20.68;57.59;96132.84;10529782;28;20040;-29
2023/07/23 20:45:24;;;;;;;4.43;3.15;;;;;;;20.68;57.08;96132.00;10533616;28;20367;-29
2023/07/23 20:50:25;;;;;;;7.23;3.17;;;;;;;20.65;57.01;96132.88;10521418;28;20040;-29
2023/07/23 20:55:25;;;;;;;8.32;4.07;;;;;;;20.76;58.43;96136.09;10532536;28;20394;-29
2023/07/23 21:00:25;;;;;;;7.30;4.00;;;;;;;20.93;58.86;96139.22;10527747;28;20036;-30
2023/07/23 21:05:26;;;;;;;5.75;2.45;;;;;;;20.95;57.22;96122.19;10525803;28;20081;-27
2023/07/23 21:10:26;;;;;;;4.40;3.40;;;;;;;20.81;56.69;96118.22;10530399;28;20032;-28
2023/07/23 21:15:28;;;;;;;5.90;3.30;;;;;;;20.76;56.78;96130.16;10525902;28;20047;-29
2023/07/23 21:20:29;;;;;;;5.00;3.80;;;;;;;20.72;56.86;96133.66;10527774;28;20083;-29
2023/07/23 21:25:29;;;;;;;4.60;3.63;;;;;;;20.70;57.00;96136.22;10497570;28;20067;-29
2023/07/23 21:30:30;;;;;;;5.40;3.63;;;;;;;20.69;56.78;96133.69;10518260;28;20044;-29
2023/07/23 21:35:41;;;;;;;5.40;4.20;;;;;;;20.70;56.99;96126.03;10529149;28;20255;-29
2023/07/23 21:40:41;;;;;;;6.45;4.50;;;;;;;20.69;57.08;96118.41;10526542;28;20293;-29
2023/07/23 21:45:45;;;;;;;10.93;5.53;;;;;;;20.76;59.43;96118.28;10531769;28;20448;-29
2023/07/23 21:50:45;;;;;;;7.10;5.05;;;;;;;20.93;58.06;96106.13;10531671;28;20032;-28
2023/07/23 21:55:45;;;;;;;6.93;4.90;;;;;;;20.98;57.76;96095.84;10531663;28;20050;-29
2023/07/23 22:00:46;;;;;;;5.53;4.10;;;;;;;20.93;57.89;96093.41;10517232;28;20142;-30
2023/07/23 22:05:46;;;;;;;6.10;4.60;;;;;;;20.85;57.38;96090.13;10532167;28;20028;-29
2023/07/23 22:10:47;;;;;;;5.65;4.40;;;;;;;20.76;56.93;96094.53;10531167;28;20040;-28
2023/07/23 22:15:48;;;;;;;5.30;3.67;;;;;;;20.67;57.17;96090.50;10526742;28;20028;-29
2023/07/23 22:20:48;;;;;;;4.90;3.53;;;;;;;20.69;56.81;96098.06;10531371;28;20059;-29
2023/07/23 22:25:51;;;;;;;5.17;3.70;;;;;;;20.66;57.01;96083.72;10533186;28;20039;-29
2023/07/23 22:30:51;;;;;;;5.82;4.78;;;;;;;20.68;57.05;96086.22;10526562;28;20490;-29
2023/07/23 22:35:51;;;;;;;7.93;5.97;;;;;;;20.71;58.13;96081.09;10536353;28;20036;-29
2023/07/23 22:40:52;;;;;;;8.97;5.20;;;;;;;20.91;57.93;96079.03;10529138;28;20036;-29
2023/07/23 22:45:52;;;;;;;8.63;5.43;;;;;;;20.93;57.61;96062.88;10526192;28;20024;-30
2023/07/23 22:50:52;;;;;;;6.03;4.30;;;;;;;20.90;57.49;96072.25;10532496;28;20038;-29
2023/07/23 22:55:53;;;;;;;4.87;3.67;;;;;;;20.79;56.67;96067.34;10536976;28;20051;-29
2023/07/23 23:00:53;;;;;;;6.17;3.97;;;;;;;20.74;56.90;96066.63;10531361;28;20040;-28
2023/07/23 23:05:53;;;;;;;5.70;4.00;;;;;;;20.72;56.81;96062.41;10528634;28;20024;-29
2023/07/23 23:10:54;;;;;;;4.60;3.83;;;;;;;20.69;57.00;96060.75;10533276;28;20037;-29
2023/07/23 23:15:54;;;;;;;5.20;4.03;;;;;;;20.68;56.87;96051.47;10530387;28;20036;-29
2023/07/23 23:20:54;;;;;;;4.47;3.77;;;;;;;20.68;56.88;96051.47;10520738;28;20509;-29